Time;durP1;ratioP1;P1;durP2;ratioP2;P2;SDS_P1;SDS_P2;PMS_P1;PMS_P2;Temp;Humidity;BMP_temperature;BMP_pressure;BME280_temperature;BME280_humidity;BME280_pressure;Samples;Min_cycle;Max_cycle;Signal;HPM_P1;HPM_P2
2024/04/24 00:00:23;;;;;;;;;;;;;;;17.07;60.03;101119.58;107139;1254;23215;-58
2024/04/24 00:02:54;;;;;;;;;;;;;;;17.05;60.19;101108.78;107079;1254;25475;-57
2024/04/24 00:05:21;;;;;;;;;;;;;;;17.04;60.39;101099.72;107169;1254;22725;-57
2024/04/24 00:07:48;;;;;;;;;;;;;;;17.03;60.39;101091.68;107151;1263;25356;-57
2024/04/24 00:10:15;;;;;;;;;;;;;;;17.03;60.65;101087.66;107065;1257;25462;-57
2024/04/24 00:12:42;;;;;;;;;;;;;;;17.02;60.67;101082.77;107151;1264;25350;-57
2024/04/24 00:15:09;;;;;;;;;;;;;;;17.02;60.75;101078.42;107176;1260;25474;-57
2024/04/24 00:17:36;;;;;;;;;;;;;;;17.03;60.80;101069.64;107082;1254;25343;-57
2024/04/24 00:20:04;;;;;;;;;;;;;;;17.03;60.76;101065.39;106721;1260;621708;-57
2024/04/24 00:22:30;;;;;;;;;;;;;;;17.05;60.79;101056.23;107241;1263;25326;-57
2024/04/24 00:24:58;;;;;;;;;;;;;;;17.05;60.71;101051.09;107118;1256;23280;-57
2024/04/24 00:27:26;;;;;;;;;;;;;;;17.06;60.76;101046.89;107085;1260;25379;-57
2024/04/24 00:29:53;;;;;;;;;;;;;;;17.06;60.68;101045.98;107210;1256;23915;-57
2024/04/24 00:32:20;;;;;;;;;;;;;;;17.07;60.72;101041.58;107097;1254;25471;-58
2024/04/24 00:34:47;;;;;;;;;;;;;;;17.08;60.67;101039.77;106982;1260;25353;-57
2024/04/24 00:37:14;;;;;;;;;;;;;;;17.08;60.60;101030.63;106942;1260;25446;-57
2024/04/24 00:39:41;;;;;;;;;;;;;;;17.07;60.51;101027.20;107231;1256;25391;-57
2024/04/24 00:42:19;;;;;;;;;;;;;;;17.07;60.38;101013.01;107157;1265;25349;-57
2024/04/24 00:44:45;;;;;;;;;;;;;;;17.07;60.43;101014.39;107100;1263;25337;-57
2024/04/24 00:47:15;;;;;;;;;;;;;;;17.08;60.37;101011.20;107101;1256;24243;-57
2024/04/24 00:49:42;;;;;;;;;;;;;;;17.09;60.23;101017.28;107156;1258;22509;-57
2024/04/24 00:52:09;;;;;;;;;;;;;;;17.10;60.20;101011.65;107094;1257;25325;-57
2024/04/24 00:54:36;;;;;;;;;;;;;;;17.10;60.16;101011.27;107174;1257;25401;-57
2024/04/24 00:57:03;;;;;;;;;;;;;;;17.12;60.18;101000.00;106444;1257;1003558;-57
2024/04/24 00:59:30;;;;;;;;;;;;;;;17.12;60.07;101000.85;106962;1254;23275;-57
2024/04/24 01:01:57;;;;;;;;;;;;;;;17.12;60.15;101018.36;107036;1257;25385;-57
2024/04/24 01:04:24;;;;;;;;;;;;;;;17.14;60.09;101019.35;107109;1254;25391;-57
2024/04/24 01:06:51;;;;;;;;;;;;;;;17.16;60.15;101015.92;107081;1254;25321;-57
2024/04/24 01:09:18;;;;;;;;;;;;;;;17.18;60.03;101012.51;106864;1262;25240;-57
2024/04/24 01:11:44;;;;;;;;;;;;;;;17.19;60.08;101013.14;107018;1258;25305;-57
2024/04/24 01:14:12;;;;;;;;;;;;;;;17.22;60.03;101000.91;107208;1263;25456;-57
2024/04/24 01:16:39;;;;;;;;;;;;;;;17.25;59.88;100982.02;107160;1254;25325;-57
2024/04/24 01:19:31;;;;;;;;;;;;;;;17.25;59.71;100968.50;107152;1263;22516;-57
2024/04/24 01:21:57;;;;;;;;;;;;;;;17.26;59.63;100973.39;105660;1251;1002847;-56
2024/04/24 01:24:25;;;;;;;;;;;;;;;17.26;59.53;100975.33;107220;1260;25331;-56
2024/04/24 01:26:52;;;;;;;;;;;;;;;17.25;59.43;100967.10;107260;1263;25338;-57
2024/04/24 01:29:19;;;;;;;;;;;;;;;17.25;59.38;100954.31;106096;1260;1003111;-58
2024/04/24 01:31:46;;;;;;;;;;;;;;;17.24;59.27;100937.89;106825;1260;25337;-56
2024/04/24 01:34:13;;;;;;;;;;;;;;;17.23;59.39;100928.84;107217;1267;22659;-57
2024/04/24 01:36:40;;;;;;;;;;;;;;;17.22;59.36;100913.09;106836;1269;25305;-58
2024/04/24 01:39:07;;;;;;;;;;;;;;;17.20;59.41;100886.35;105592;1257;1003695;-57
2024/04/24 01:41:34;;;;;;;;;;;;;;;17.19;59.44;100870.63;107141;1270;25318;-58
2024/04/24 01:44:00;;;;;;;;;;;;;;;17.18;59.62;100863.84;107121;1270;25343;-57
2024/04/24 01:46:27;;;;;;;;;;;;;;;17.19;59.68;100859.95;107164;1261;25404;-57
2024/04/24 01:48:55;;;;;;;;;;;;;;;17.18;59.69;100863.14;107131;1250;25469;-57
2024/04/24 01:51:22;;;;;;;;;;;;;;;17.19;59.80;100873.45;106890;1260;22498;-57
2024/04/24 01:53:50;;;;;;;;;;;;;;;17.19;59.89;100881.70;107165;1256;25340;-56
2024/04/24 01:56:18;;;;;;;;;;;;;;;17.22;59.85;100886.81;107127;1263;25456;-56
2024/04/24 01:58:45;;;;;;;;;;;;;;;17.22;59.87;100883.13;106776;1268;25366;-57
2024/04/24 02:01:12;;;;;;;;;;;;;;;17.22;59.99;100868.18;107164;1266;25353;-57
2024/04/24 02:03:39;;;;;;;;;;;;;;;17.23;59.99;100875.52;106676;1262;25532;-57
2024/04/24 02:06:06;;;;;;;;;;;;;;;17.24;60.10;100870.20;106799;1265;25340;-57
2024/04/24 02:08:34;;;;;;;;;;;;;;;17.24;60.06;100862.51;107145;1257;25471;-57
2024/04/24 02:11:01;;;;;;;;;;;;;;;17.24;60.10;100855.33;107177;1260;22625;-57
2024/04/24 02:13:28;;;;;;;;;;;;;;;17.23;60.08;100846.44;107061;1264;25435;-57
2024/04/24 02:15:55;;;;;;;;;;;;;;;17.22;60.22;100842.27;107047;1267;25334;-56
2024/04/24 02:18:22;;;;;;;;;;;;;;;17.21;60.33;100838.11;106357;1256;1002483;-60
2024/04/24 02:20:49;;;;;;;;;;;;;;;17.21;60.37;100837.55;107138;1254;25548;-57
2024/04/24 02:23:20;;;;;;;;;;;;;;;17.22;60.37;100826.66;106730;1267;25315;-57
2024/04/24 02:25:48;;;;;;;;;;;;;;;17.22;60.50;100809.98;107126;1263;22497;-57
2024/04/24 02:28:15;;;;;;;;;;;;;;;17.23;60.49;100806.83;107152;1266;25343;-57
2024/04/24 02:30:42;;;;;;;;;;;;;;;17.23;60.62;100808.77;107199;1257;25423;-56
2024/04/24 02:33:09;;;;;;;;;;;;;;;17.24;60.70;100806.42;107110;1264;25333;-56
2024/04/24 02:35:36;;;;;;;;;;;;;;;17.24;60.72;100808.86;106852;1270;25396;-57
2024/04/24 02:38:03;;;;;;;;;;;;;;;17.24;60.76;100809.56;106854;1272;25372;-57
2024/04/24 02:40:30;;;;;;;;;;;;;;;17.25;60.79;100800.39;107186;1266;25349;-57
2024/04/24 02:42:57;;;;;;;;;;;;;;;17.25;60.81;100797.95;107206;1257;25315;-57
2024/04/24 02:45:24;;;;;;;;;;;;;;;17.24;60.78;100791.52;106964;1269;25347;-57
2024/04/24 02:47:51;;;;;;;;;;;;;;;17.24;60.81;100785.55;107218;1257;22506;-57
2024/04/24 02:50:18;;;;;;;;;;;;;;;17.25;60.95;100784.45;107167;1264;25343;-57
2024/04/24 02:52:45;;;;;;;;;;;;;;;17.24;60.91;100778.51;107105;1260;25396;-56
2024/04/24 02:55:12;;;;;;;;;;;;;;;17.24;61.00;100779.56;107075;1260;25316;-57
2024/04/24 02:57:39;;;;;;;;;;;;;;;17.23;61.17;100772.95;107188;1257;25315;-57
2024/04/24 03:00:06;;;;;;;;;;;;;;;17.24;61.15;100771.35;107081;1267;25401;-57
2024/04/24 03:02:35;;;;;;;;;;;;;;;17.24;61.12;100766.41;107151;1256;25319;-57
2024/04/24 03:05:02;;;;;;;;;;;;;;;17.25;61.17;100751.48;106907;1260;25315;-57
2024/04/24 03:07:30;;;;;;;;;;;;;;;17.24;61.26;100746.79;107180;1257;25331;-57
2024/04/24 03:09:57;;;;;;;;;;;;;;;17.24;61.31;100739.07;107122;1264;25570;-58
2024/04/24 03:12:25;;;;;;;;;;;;;;;17.23;61.37;100745.11;107122;1260;24225;-57
2024/04/24 03:14:52;;;;;;;;;;;;;;;17.22;61.41;100743.05;107159;1257;25315;-58
2024/04/24 03:17:19;;;;;;;;;;;;;;;17.21;61.49;100730.81;106927;1260;25315;-57
2024/04/24 03:19:46;;;;;;;;;;;;;;;17.21;61.50;100739.60;107125;1257;24274;-57
2024/04/24 03:22:13;;;;;;;;;;;;;;;17.21;61.58;100735.20;106945;1267;25417;-58
2024/04/24 03:24:39;;;;;;;;;;;;;;;17.21;61.57;100726.07;107043;1263;25334;-57
2024/04/24 03:27:07;;;;;;;;;;;;;;;17.20;61.64;100716.98;107130;1264;23199;-57
2024/04/24 03:29:34;;;;;;;;;;;;;;;17.19;61.61;100701.27;107046;1257;24195;-58
2024/04/24 03:32:01;;;;;;;;;;;;;;;17.18;61.64;100700.83;107145;1256;25395;-57
2024/04/24 03:34:28;;;;;;;;;;;;;;;17.17;61.75;100707.20;107151;1257;25344;-58
2024/04/24 03:36:55;;;;;;;;;;;;;;;17.15;61.75;100700.80;107121;1258;25458;-57
2024/04/24 03:39:22;;;;;;;;;;;;;;;17.15;61.83;100699.93;107226;1259;25334;-57
2024/04/24 03:41:49;;;;;;;;;;;;;;;17.14;61.75;100687.71;107149;1257;25335;-57
2024/04/24 03:44:16;;;;;;;;;;;;;;;17.12;61.58;100674.98;106798;1263;24350;-57
2024/04/24 03:46:43;;;;;;;;;;;;;;;17.11;61.36;100664.52;107120;1256;25315;-57
2024/04/24 03:49:10;;;;;;;;;;;;;;;17.09;61.11;100651.65;107170;1264;25474;-57
2024/04/24 03:51:37;;;;;;;;;;;;;;;17.07;60.86;100648.94;106957;1267;25353;-57
2024/04/24 03:54:04;;;;;;;;;;;;;;;17.06;60.59;100642.70;107114;1260;25318;-56
2024/04/24 03:56:31;;;;;;;;;;;;;;;17.04;60.37;100634.21;107086;1266;25432;-56
2024/04/24 03:58:58;;;;;;;;;;;;;;;17.01;60.09;100628.77;106611;1264;25309;-58
2024/04/24 04:01:27;;;;;;;;;;;;;;;17.00;60.09;100620.75;107100;1263;22571;-57
2024/04/24 04:03:54;;;;;;;;;;;;;;;17.01;60.03;100621.05;107170;1258;25331;-57
2024/04/24 04:06:21;;;;;;;;;;;;;;;17.02;59.92;100614.89;107190;1257;23307;-57
2024/04/24 04:08:48;;;;;;;;;;;;;;;17.02;59.99;100603.98;107086;1263;25315;-57
2024/04/24 04:11:15;;;;;;;;;;;;;;;17.03;60.02;100597.47;107118;1267;25333;-57
2024/04/24 04:13:42;;;;;;;;;;;;;;;17.05;59.94;100588.41;106954;1267;25407;-58
2024/04/24 04:16:09;;;;;;;;;;;;;;;17.07;60.08;100582.52;106992;1274;25388;-57
2024/04/24 04:18:36;;;;;;;;;;;;;;;17.10;60.10;100571.02;107255;1267;25481;-57
2024/04/24 04:21:03;;;;;;;;;;;;;;;17.13;60.18;100561.54;106910;1271;25329;-57
2024/04/24 04:23:30;;;;;;;;;;;;;;;17.15;60.11;100563.02;107120;1267;25469;-57
2024/04/24 04:25:57;;;;;;;;;;;;;;;17.16;60.24;100562.25;107130;1266;25328;-57
2024/04/24 04:28:24;;;;;;;;;;;;;;;17.19;60.30;100563.52;106750;1257;25315;-58
2024/04/24 04:30:51;;;;;;;;;;;;;;;17.21;60.37;100546.89;107115;1270;22509;-57
2024/04/24 04:33:18;;;;;;;;;;;;;;;17.26;60.47;100523.89;107196;1270;25472;-57
2024/04/24 04:35:45;;;;;;;;;;;;;;;17.30;60.50;100519.96;107138;1266;25396;-57
2024/04/24 04:38:12;;;;;;;;;;;;;;;17.35;60.47;100514.42;107244;1254;25306;-57
2024/04/24 04:40:39;;;;;;;;;;;;;;;17.41;60.46;100523.58;107140;1257;25402;-57
2024/04/24 04:43:06;;;;;;;;;;;;;;;17.46;60.36;100529.80;106836;1263;25335;-57
2024/04/24 04:45:33;;;;;;;;;;;;;;;17.52;60.34;100530.54;107199;1267;25350;-57
2024/04/24 04:48:00;;;;;;;;;;;;;;;17.59;60.22;100516.16;107075;1267;25318;-57
2024/04/24 04:50:27;;;;;;;;;;;;;;;17.63;60.17;100509.05;107082;1267;25372;-57
2024/04/24 04:52:54;;;;;;;;;;;;;;;17.66;60.04;100497.52;107159;1257;25325;-57
2024/04/24 04:55:22;;;;;;;;;;;;;;;17.68;60.05;100487.95;107133;1267;25391;-57
2024/04/24 04:57:48;;;;;;;;;;;;;;;17.76;59.84;100483.08;106420;1267;1003039;-57
2024/04/24 05:00:15;;;;;;;;;;;;;;;18.03;59.15;100471.77;106856;1260;24190;-58
2024/04/24 05:02:44;;;;;;;;;;;;;;;18.12;58.99;100472.48;107117;1267;25390;-57
2024/04/24 05:05:11;;;;;;;;;;;;;;;18.19;58.82;100470.99;107225;1267;25517;-57
2024/04/24 05:07:38;;;;;;;;;;;;;;;18.25;58.74;100468.19;107110;1267;25343;-57
2024/04/24 05:10:05;;;;;;;;;;;;;;;18.30;58.58;100470.67;107108;1267;25545;-57
2024/04/24 05:12:32;;;;;;;;;;;;;;;18.36;58.54;100463.84;107040;1274;25375;-57
2024/04/24 05:14:59;;;;;;;;;;;;;;;18.42;58.34;100449.44;107180;1267;25343;-57
2024/04/24 05:17:26;;;;;;;;;;;;;;;18.47;58.06;100439.52;107094;1267;25309;-57
2024/04/24 05:19:54;;;;;;;;;;;;;;;18.49;57.94;100439.57;107180;1266;26487;-57
2024/04/24 05:22:22;;;;;;;;;;;;;;;18.52;57.95;100433.96;107191;1267;25539;-57
2024/04/24 05:24:49;;;;;;;;;;;;;;;18.54;57.86;100441.70;107150;1267;25459;-57
2024/04/24 05:30:02;;;;;;;;;;;;;;;18.60;57.84;100447.15;107035;1267;25433;-57
2024/04/24 05:32:29;;;;;;;;;;;;;;;18.64;57.81;100442.87;107183;1267;24382;-57
2024/04/24 05:34:57;;;;;;;;;;;;;;;18.67;57.63;100438.98;107138;1267;25477;-56
2024/04/24 05:37:23;;;;;;;;;;;;;;;18.71;57.48;100440.37;107104;1270;25334;-57
2024/04/24 05:39:51;;;;;;;;;;;;;;;18.72;57.33;100433.98;107045;1267;26649;-56
2024/04/24 05:42:18;;;;;;;;;;;;;;;18.75;57.32;100439.95;107070;1258;25385;-57
2024/04/24 05:44:45;;;;;;;;;;;;;;;18.79;57.24;100441.13;107188;1267;25347;-57
2024/04/24 05:47:12;;;;;;;;;;;;;;;18.80;57.22;100435.38;106893;1270;25478;-57
2024/04/24 05:49:39;;;;;;;;;;;;;;;18.83;57.10;100441.36;107104;1268;25325;-57
2024/04/24 05:52:06;;;;;;;;;;;;;;;18.86;57.00;100451.71;107189;1267;25392;-57
2024/04/24 05:54:37;;;;;;;;;;;;;;;18.90;56.92;100454.11;107268;1267;25510;-57
2024/04/24 05:57:04;;;;;;;;;;;;;;;18.77;57.36;100454.05;107049;1267;25364;-57
2024/04/24 05:59:31;;;;;;;;;;;;;;;18.65;57.76;100444.06;107112;1267;22808;-57
2024/04/24 06:01:58;;;;;;;;;;;;;;;18.66;58.01;100443.98;106849;1266;25327;-58
2024/04/24 06:04:25;;;;;;;;;;;;;;;18.71;57.93;100450.56;106820;1253;25324;-57
2024/04/24 06:06:52;;;;;;;;;;;;;;;18.77;57.97;100449.98;107072;1267;25385;-57
2024/04/24 06:09:22;;;;;;;;;;;;;;;18.89;57.75;100463.34;107093;1268;25331;-58
2024/04/24 06:11:50;;;;;;;;;;;;;;;18.99;57.77;100476.06;107187;1267;25448;-57
2024/04/24 06:14:16;;;;;;;;;;;;;;;19.15;57.93;100479.84;107036;1251;25333;-57
2024/04/24 06:16:44;;;;;;;;;;;;;;;19.34;57.84;100465.25;107093;1266;25315;-57
2024/04/24 06:19:11;;;;;;;;;;;;;;;19.55;57.08;100459.60;107063;1270;25389;-57
2024/04/24 06:21:38;;;;;;;;;;;;;;;19.72;56.44;100440.73;107106;1267;25362;-58
2024/04/24 06:24:05;;;;;;;;;;;;;;;19.85;56.03;100428.94;106823;1270;25408;-57
2024/04/24 06:26:36;;;;;;;;;;;;;;;19.94;55.55;100430.77;107038;1267;22945;-57
2024/04/24 06:29:03;;;;;;;;;;;;;;;20.08;55.18;100430.45;107108;1267;25334;-58
2024/04/24 06:31:30;;;;;;;;;;;;;;;20.24;54.71;100420.20;107144;1267;25337;-57
2024/04/24 06:33:57;;;;;;;;;;;;;;;20.42;54.38;100439.23;106903;1266;25420;-57
2024/04/24 06:36:24;;;;;;;;;;;;;;;20.63;54.27;100452.09;107126;1266;23184;-57
2024/04/24 06:38:52;;;;;;;;;;;;;;;20.89;53.84;100443.42;107047;1266;25328;-58
2024/04/24 06:41:19;;;;;;;;;;;;;;;21.17;53.21;100432.64;106924;1267;22517;-58
2024/04/24 06:43:46;;;;;;;;;;;;;;;21.47;52.66;100423.09;107165;1267;25462;-58
2024/04/24 06:46:13;;;;;;;;;;;;;;;21.76;51.96;100415.48;107224;1267;25380;-57
2024/04/24 06:48:40;;;;;;;;;;;;;;;22.12;51.00;100433.10;106836;1266;25392;-57
2024/04/24 06:51:07;;;;;;;;;;;;;;;22.59;49.79;100446.88;107157;1266;25340;-57
2024/04/24 06:53:34;;;;;;;;;;;;;;;22.88;48.70;100437.77;107173;1267;25334;-57
2024/04/24 06:56:02;;;;;;;;;;;;;;;23.13;48.10;100421.73;106458;1266;1003602;-57
2024/04/24 06:58:33;;;;;;;;;;;;;;;23.35;47.42;100409.73;107125;1267;25521;-57
2024/04/24 07:01:06;;;;;;;;;;;;;;;23.57;46.91;100411.17;107101;1266;22635;-57
2024/04/24 07:03:33;;;;;;;;;;;;;;;23.78;46.34;100404.94;107128;1266;22506;-57
2024/04/24 07:06:00;;;;;;;;;;;;;;;23.97;45.38;100406.44;106883;1267;25370;-57
2024/04/24 07:08:27;;;;;;;;;;;;;;;24.12;45.05;100408.70;107126;1266;24206;-58
2024/04/24 07:10:54;;;;;;;;;;;;;;;24.26;44.97;100400.07;107177;1266;25305;-57
2024/04/24 07:13:22;;;;;;;;;;;;;;;24.39;44.56;100397.58;107169;1267;25315;-58
2024/04/24 07:15:49;;;;;;;;;;;;;;;24.52;44.28;100399.48;107081;1266;25363;-57
2024/04/24 07:18:16;;;;;;;;;;;;;;;24.67;44.29;100410.98;107165;1266;25392;-57
2024/04/24 07:20:44;;;;;;;;;;;;;;;24.80;44.16;100418.13;107097;1267;25526;-57
2024/04/24 07:23:11;;;;;;;;;;;;;;;24.96;43.60;100419.39;106810;1254;25526;-58
2024/04/24 07:25:38;;;;;;;;;;;;;;;25.11;43.04;100414.23;107128;1267;22572;-59
2024/04/24 07:28:05;;;;;;;;;;;;;;;25.22;42.25;100407.76;106855;1274;24982;-57
2024/04/24 07:30:32;;;;;;;;;;;;;;;25.30;41.75;100411.29;106852;1267;25390;-58
2024/04/24 07:32:59;;;;;;;;;;;;;;;25.35;41.36;100409.59;107149;1270;25312;-58
2024/04/24 07:35:26;;;;;;;;;;;;;;;25.36;41.74;100394.23;106872;1269;25335;-58
2024/04/24 07:37:54;;;;;;;;;;;;;;;25.32;41.17;100384.80;107243;1267;25446;-57
2024/04/24 07:40:21;;;;;;;;;;;;;;;25.23;41.02;100376.73;107188;1266;25475;-58
2024/04/24 07:42:48;;;;;;;;;;;;;;;25.13;41.04;100377.81;107097;1270;25343;-58
2024/04/24 07:45:15;;;;;;;;;;;;;;;25.03;41.22;100374.27;107116;1270;25385;-58
2024/04/24 07:47:42;;;;;;;;;;;;;;;24.92;41.09;100376.64;106972;1257;23681;-58
2024/04/24 07:50:09;;;;;;;;;;;;;;;24.81;41.39;100377.95;107061;1266;22505;-57
2024/04/24 07:52:37;;;;;;;;;;;;;;;24.72;41.37;100376.46;107211;1267;25465;-57
2024/04/24 07:55:04;;;;;;;;;;;;;;;24.64;41.65;100377.88;107181;1266;25412;-58
2024/04/24 07:57:31;;;;;;;;;;;;;;;24.56;41.67;100379.46;106833;1267;25402;-57
2024/04/24 07:59:58;;;;;;;;;;;;;;;24.49;42.15;100382.31;107177;1267;25352;-57
2024/04/24 08:02:25;;;;;;;;;;;;;;;24.46;42.34;100384.95;107179;1266;22513;-57
2024/04/24 08:04:53;;;;;;;;;;;;;;;24.41;42.33;100394.77;107065;1270;25558;-58
2024/04/24 08:07:20;;;;;;;;;;;;;;;24.36;42.14;100392.00;107161;1266;25388;-58
2024/04/24 08:09:47;;;;;;;;;;;;;;;24.33;41.62;100394.08;106868;1270;25373;-56
2024/04/24 08:12:14;;;;;;;;;;;;;;;24.29;41.53;100393.17;107113;1259;22623;-57
2024/04/24 08:14:41;;;;;;;;;;;;;;;24.23;41.39;100387.21;106862;1274;25427;-57
2024/04/24 08:17:08;;;;;;;;;;;;;;;24.18;41.68;100395.25;107100;1267;22505;-57
2024/04/24 08:19:35;;;;;;;;;;;;;;;24.13;41.79;100397.98;107038;1266;25361;-57
2024/04/24 08:22:02;;;;;;;;;;;;;;;24.09;41.72;100393.74;106813;1270;25382;-57
2024/04/24 08:24:30;;;;;;;;;;;;;;;24.04;41.74;100401.90;107155;1267;25334;-57
2024/04/24 08:26:57;;;;;;;;;;;;;;;23.99;42.28;100406.92;106890;1269;25402;-57
2024/04/24 08:29:27;;;;;;;;;;;;;;;23.94;42.41;100406.27;106871;1267;22511;-57
2024/04/24 08:31:57;;;;;;;;;;;;;;;23.90;42.50;100397.20;107162;1266;22509;-58
2024/04/24 08:34:24;;;;;;;;;;;;;;;23.88;42.48;100394.04;107097;1267;25472;-57
2024/04/24 08:36:51;;;;;;;;;;;;;;;23.85;42.39;100383.28;107190;1266;25315;-56
2024/04/24 08:39:18;;;;;;;;;;;;;;;23.82;42.54;100375.74;107083;1267;25539;-58
2024/04/24 08:41:46;;;;;;;;;;;;;;;23.79;42.60;100375.11;107108;1267;25347;-57
2024/04/24 08:44:13;;;;;;;;;;;;;;;23.76;42.83;100373.11;107158;1266;25328;-57
2024/04/24 08:46:42;;;;;;;;;;;;;;;23.73;42.96;100367.69;107167;1267;25401;-57
2024/04/24 08:49:09;;;;;;;;;;;;;;;23.70;43.00;100368.77;107143;1266;25333;-57
2024/04/24 08:51:37;;;;;;;;;;;;;;;23.68;43.04;100365.98;107174;1266;25328;-57
2024/04/24 08:54:04;;;;;;;;;;;;;;;23.67;43.28;100366.75;107213;1266;23863;-57
2024/04/24 08:56:33;;;;;;;;;;;;;;;23.69;43.32;100362.00;107157;1266;25347;-57
2024/04/24 08:59:00;;;;;;;;;;;;;;;23.70;43.32;100357.63;107057;1251;22509;-57
2024/04/24 09:01:29;;;;;;;;;;;;;;;23.73;43.45;100354.55;107059;1266;22621;-57
2024/04/24 09:04:03;;;;;;;;;;;;;;;23.76;43.47;100345.09;106926;1267;25331;-57
2024/04/24 09:06:31;;;;;;;;;;;;;;;23.77;43.23;100338.81;107186;1267;25337;-57
2024/04/24 09:08:58;;;;;;;;;;;;;;;23.77;43.30;100335.25;107043;1267;22509;-58
2024/04/24 09:11:25;;;;;;;;;;;;;;;23.77;43.45;100331.17;106893;1267;22502;-57
2024/04/24 09:13:53;;;;;;;;;;;;;;;23.77;43.56;100336.71;107123;1267;25343;-57
2024/04/24 09:16:23;;;;;;;;;;;;;;;23.78;43.56;100338.59;107160;1266;22794;-57
2024/04/24 09:19:02;;;;;;;;;;;;;;;23.78;43.50;100347.95;107109;1267;25343;-57
2024/04/24 09:21:30;;;;;;;;;;;;;;;23.78;43.50;100339.27;107260;1266;24233;-57
2024/04/24 09:23:57;;;;;;;;;;;;;;;23.78;43.39;100336.58;106827;1257;25465;-57
2024/04/24 09:26:25;;;;;;;;;;;;;;;23.77;43.39;100328.05;107164;1266;25334;-57
2024/04/24 09:28:52;;;;;;;;;;;;;;;23.75;43.37;100325.31;107083;1267;25500;-58
2024/04/24 09:31:19;;;;;;;;;;;;;;;23.73;43.55;100325.15;106809;1267;25343;-58
2024/04/24 09:33:50;;;;;;;;;;;;;;;23.72;43.57;100332.36;107171;1267;22579;-57
2024/04/24 09:36:17;;;;;;;;;;;;;;;23.70;43.81;100330.92;107161;1266;22516;-57
2024/04/24 09:38:45;;;;;;;;;;;;;;;23.69;43.79;100334.72;107058;1266;25383;-58
2024/04/24 09:41:12;;;;;;;;;;;;;;;23.70;44.04;100327.23;106953;1269;25423;-57
2024/04/24 09:43:39;;;;;;;;;;;;;;;23.70;44.20;100318.34;106795;1269;25421;-58
2024/04/24 09:46:06;;;;;;;;;;;;;;;23.71;44.05;100313.96;107147;1266;25326;-57
2024/04/24 09:48:33;;;;;;;;;;;;;;;23.74;44.17;100319.76;107068;1269;25350;-57
2024/04/24 09:51:01;;;;;;;;;;;;;;;23.76;44.14;100314.11;107125;1257;25352;-57
2024/04/24 09:53:28;;;;;;;;;;;;;;;23.78;44.18;100311.27;106943;1267;25353;-57
2024/04/24 09:56:02;;;;;;;;;;;;;;;23.80;43.97;100310.72;106847;1267;25380;-57
2024/04/24 09:58:30;;;;;;;;;;;;;;;23.82;43.90;100311.27;107172;1266;25491;-57
2024/04/24 10:00:57;;;;;;;;;;;;;;;23.85;43.86;100311.95;107015;1267;25324;-57
2024/04/24 10:03:25;;;;;;;;;;;;;;;23.86;43.94;100316.09;106864;1273;25349;-55
2024/04/24 10:05:52;;;;;;;;;;;;;;;23.86;43.79;100316.44;107115;1270;25359;-59
2024/04/24 10:08:28;;;;;;;;;;;;;;;23.84;43.68;100312.17;107116;1266;25410;-57
2024/04/24 10:10:56;;;;;;;;;;;;;;;23.80;43.72;100304.32;107128;1266;22502;-57
2024/04/24 10:13:23;;;;;;;;;;;;;;;23.76;43.70;100306.66;106844;1270;25335;-57
2024/04/24 10:15:54;;;;;;;;;;;;;;;23.73;43.92;100305.69;107115;1266;25341;-57
2024/04/24 10:18:21;;;;;;;;;;;;;;;23.68;44.00;100299.86;107135;1266;25368;-57
2024/04/24 10:20:49;;;;;;;;;;;;;;;23.64;44.12;100297.04;107175;1267;25371;-57
2024/04/24 10:23:17;;;;;;;;;;;;;;;23.61;44.41;100295.38;107121;1266;25405;-56
2024/04/24 10:25:44;;;;;;;;;;;;;;;23.57;44.43;100296.77;107155;1266;23322;-57
2024/04/24 10:28:11;;;;;;;;;;;;;;;23.54;44.60;100293.84;107142;1266;22516;-56
2024/04/24 10:30:41;;;;;;;;;;;;;;;23.51;44.62;100288.80;107195;1266;25387;-58
2024/04/24 10:33:08;;;;;;;;;;;;;;;23.47;44.83;100289.98;107062;1266;25343;-58
2024/04/24 10:35:35;;;;;;;;;;;;;;;23.45;44.97;100284.70;107137;1269;25379;-57
2024/04/24 10:38:03;;;;;;;;;;;;;;;23.43;44.86;100286.07;107100;1266;25318;-57
2024/04/24 10:40:31;;;;;;;;;;;;;;;23.42;44.85;100289.86;107112;1266;22528;-57
2024/04/24 10:43:02;;;;;;;;;;;;;;;23.40;44.76;100282.77;107155;1267;24318;-57
2024/04/24 10:45:32;;;;;;;;;;;;;;;23.38;44.76;100287.16;107099;1270;25486;-57
2024/04/24 10:47:59;;;;;;;;;;;;;;;23.37;44.77;100296.11;107086;1267;25401;-58
2024/04/24 10:50:26;;;;;;;;;;;;;;;23.36;44.86;100290.16;107158;1266;25315;-58
2024/04/24 10:52:54;;;;;;;;;;;;;;;23.34;44.83;100285.04;107142;1267;24243;-57
2024/04/24 10:55:21;;;;;;;;;;;;;;;23.31;45.05;100286.84;107142;1267;23894;-57
2024/04/24 10:57:49;;;;;;;;;;;;;;;23.29;45.07;100291.30;107045;1266;25449;-58
2024/04/24 11:00:16;;;;;;;;;;;;;;;23.26;45.18;100294.70;107148;1267;22506;-57
2024/04/24 11:02:45;;;;;;;;;;;;;;;23.25;45.17;100292.33;107059;1267;22620;-57
2024/04/24 11:05:13;;;;;;;;;;;;;;;23.23;45.22;100292.85;107234;1266;22500;-58
2024/04/24 11:07:40;;;;;;;;;;;;;;;23.20;45.22;100296.93;107197;1266;25324;-56
2024/04/24 11:10:07;;;;;;;;;;;;;;;23.18;45.30;100296.77;107061;1267;25508;-58
2024/04/24 11:12:38;;;;;;;;;;;;;;;23.15;45.26;100296.65;107083;1266;25348;-57
2024/04/24 11:15:05;;;;;;;;;;;;;;;23.10;45.38;100300.45;107074;1270;25410;-56
2024/04/24 11:17:33;;;;;;;;;;;;;;;23.04;45.49;100298.98;107163;1266;22510;-56
2024/04/24 11:20:01;;;;;;;;;;;;;;;22.98;45.55;100292.91;106946;1267;25363;-57
2024/04/24 11:22:28;;;;;;;;;;;;;;;22.94;45.81;100292.22;107199;1266;24450;-57
2024/04/24 11:24:55;;;;;;;;;;;;;;;22.90;45.90;100289.50;107159;1266;25353;-57
2024/04/24 11:27:23;;;;;;;;;;;;;;;22.89;46.18;100289.58;107149;1266;25374;-57
2024/04/24 11:29:52;;;;;;;;;;;;;;;22.91;46.25;100288.73;106944;1267;25449;-57
2024/04/24 11:32:19;;;;;;;;;;;;;;;22.94;46.29;100290.92;107106;1266;23655;-57
2024/04/24 11:34:46;;;;;;;;;;;;;;;22.98;46.45;100291.16;106812;1270;22514;-57
2024/04/24 11:37:13;;;;;;;;;;;;;;;23.04;46.19;100291.92;106805;1269;25316;-57
2024/04/24 11:39:40;;;;;;;;;;;;;;;23.09;46.13;100288.89;106409;1277;25520;-56
2024/04/24 11:42:08;;;;;;;;;;;;;;;23.12;46.20;100289.46;106747;1273;25393;-56
2024/04/24 11:44:35;;;;;;;;;;;;;;;23.16;46.07;100287.20;106880;1269;25500;-56
2024/04/24 11:47:02;;;;;;;;;;;;;;;23.21;46.09;100287.33;106808;1272;25407;-57
2024/04/24 11:49:29;;;;;;;;;;;;;;;23.27;45.98;100288.41;106880;1272;22508;-57
2024/04/24 11:51:57;;;;;;;;;;;;;;;23.29;45.49;100289.45;106865;1257;25504;-57
2024/04/24 11:54:27;;;;;;;;;;;;;;;23.30;45.54;100292.77;106818;1269;25327;-57
2024/04/24 11:56:58;;;;;;;;;;;;;;;23.30;45.66;100292.60;106873;1269;25596;-57
2024/04/24 11:59:25;;;;;;;;;;;;;;;23.30;45.84;100292.27;106843;1269;25356;-58
2024/04/24 12:01:52;;;;;;;;;;;;;;;23.29;45.67;100294.13;106885;1269;23329;-57
2024/04/24 12:04:20;;;;;;;;;;;;;;;23.27;45.78;100289.82;106739;1273;25378;-56
2024/04/24 12:06:47;;;;;;;;;;;;;;;23.26;45.79;100289.23;106800;1269;25333;-56
2024/04/24 12:09:17;;;;;;;;;;;;;;;23.23;45.84;100287.88;107075;1266;24383;-56
2024/04/24 12:11:44;;;;;;;;;;;;;;;23.20;45.93;100283.34;107094;1264;24533;-57
2024/04/24 12:14:13;;;;;;;;;;;;;;;23.19;46.05;100284.49;107107;1270;25334;-57
2024/04/24 12:16:41;;;;;;;;;;;;;;;23.16;46.02;100285.42;107081;1266;24285;-57
2024/04/24 12:19:08;;;;;;;;;;;;;;;23.14;46.21;100289.54;107041;1266;250605;-57
2024/04/24 12:21:35;;;;;;;;;;;;;;;23.12;46.31;100295.52;107156;1266;25452;-57
2024/04/24 12:24:02;;;;;;;;;;;;;;;23.13;46.26;100298.80;107064;1269;25401;-57
2024/04/24 12:26:29;;;;;;;;;;;;;;;23.14;46.46;100307.02;106795;1267;25397;-57
2024/04/24 12:28:56;;;;;;;;;;;;;;;23.15;46.27;100302.14;107217;1270;25324;-57